CheckWX is a tool to help pilots better visualize weather data.  It is not intended as a substitute for an official pre-flight weather briefing.

19:01:19 UTC

CYVP TAF
Kuujjuaq Airport
Kuujjuaq, Canada
TAF CYVP 191738Z 1918/2006 05010KT P6SM FEW015 SCT090 BKN120 TEMPO 1918/1924 BKN090 FM200000 03010KT P6SM FEW010 BKN040 TEMPO 2000/2006 BKN010 PROB30 2000/2006 2SM BR BKN006 RMK NXT FCST BY 200000Z

Jun-19@
18:00 UTC

Jun-19 @ 18:00 UTC

Jun-20@
00:00 UTC

Jun-20 @ 00:00 UTC

TAF CYVP 191738Z 1918/2006 05010KT P6SM FEW015 SCT090 BKN120
Wind
  • 050° at 10 KTS
Cloud Levels
  • Few at 1,500' AGL
  • Scattered at 9,000' AGL
  • Broken at 12,000' AGL

Jun-19@
18:00 UTC

Jun-19 @ 18:00 UTC

Jun-20@
00:00 UTC

Jun-20 @ 00:00 UTC

TEMPO 1918/1924 BKN090

Temporary

Temporary Changes expected for less than half the time period

Cloud Levels
  • Broken at 9,000' AGL

Jun-20@
00:00 UTC

Jun-20 @ 00:00 UTC

Jun-20@
06:00 UTC

Jun-20 @ 06:00 UTC

PROB30 2000/2006 2SM BR BKN006 RMK NXT FCST BY 200000Z

Probable - 30% Likelihood

Probable - 30% Likelihood during this time.

Conditions
Mist
Cloud Levels
  • Broken at 600' AGL

Jun-20@
00:00 UTC

Jun-20 @ 00:00 UTC

Jun-20@
06:00 UTC

Jun-20 @ 06:00 UTC

TEMPO 2000/2006 BKN010

Temporary

Temporary Changes expected for less than half the time period

Cloud Levels
  • Broken at 1,000' AGL

Jun-20@
00:00 UTC

Jun-20 @ 00:00 UTC

Jun-20@
06:00 UTC

Jun-20 @ 06:00 UTC

FM200000 03010KT P6SM FEW010 BKN040

From

From Standard forecast or significant change

Wind
  • 030° at 10 KTS
Cloud Levels
  • Few at 1,000' AGL
  • Broken at 4,000' AGL